createdAt,value
2022-08-14T00:00:40.941Z,3.25
2022-08-14T00:03:29.802Z,3.33
2022-08-14T00:06:25.853Z,3.45
2022-08-14T00:09:07.307Z,3.63
2022-08-14T00:11:45.481Z,3.67
2022-08-14T00:14:26.152Z,3.40
2022-08-14T00:17:06.112Z,3.50
2022-08-14T00:19:44.282Z,3.40
2022-08-14T00:22:56.166Z,3.38
2022-08-14T00:25:22.827Z,3.55
2022-08-14T00:27:58.295Z,3.70
2022-08-14T00:30:36.702Z,3.53
2022-08-14T00:33:21.140Z,3.55
2022-08-14T00:36:35.888Z,3.28
2022-08-14T00:39:24.140Z,3.33
2022-08-14T00:42:04.967Z,3.65
2022-08-14T00:44:43.786Z,3.70
2022-08-14T00:47:26.792Z,3.30
2022-08-14T00:50:10.192Z,3.22
2022-08-14T00:52:57.040Z,3.28
2022-08-14T00:55:38.920Z,3.45
2022-08-14T00:58:33.695Z,3.08
2022-08-14T01:01:16.714Z,3.35
2022-08-14T01:03:57.536Z,3.03
2022-08-14T01:06:35.307Z,3.45
2022-08-14T01:09:13.890Z,3.55
2022-08-14T01:12:02.730Z,3.77
2022-08-14T01:14:41.562Z,3.47
2022-08-14T01:17:19.912Z,3.63
2022-08-14T01:23:16.396Z,3.33
2022-08-14T01:25:58.496Z,3.80
2022-08-14T01:28:56.543Z,3.80
2022-08-14T01:31:52.581Z,4.13
2022-08-14T01:35:19.978Z,3.75
2022-08-14T01:37:31.443Z,4.45
2022-08-14T01:40:11.087Z,3.90
2022-08-14T01:42:49.836Z,4.28
2022-08-14T01:45:28.855Z,3.75
2022-08-14T01:48:13.332Z,3.60
2022-08-14T01:50:52.307Z,4.38
2022-08-14T01:53:35.832Z,3.67
2022-08-14T01:56:20.324Z,4.03
2022-08-14T01:58:58.444Z,4.03
2022-08-14T02:01:38.071Z,4.55
2022-08-14T02:04:55.580Z,3.80
2022-08-14T02:07:34.703Z,3.30
2022-08-14T02:10:26.008Z,3.72
2022-08-14T02:13:08.343Z,3.95
2022-08-14T02:15:48.812Z,3.40
2022-08-14T02:18:28.475Z,3.67
2022-08-14T02:21:12.722Z,3.90
2022-08-14T02:23:54.662Z,4.22
2022-08-14T02:28:19.228Z,3.42
2022-08-14T02:29:59.341Z,3.80
2022-08-14T02:32:38.292Z,3.75
2022-08-14T02:35:21.937Z,3.55
2022-08-14T02:38:04.707Z,3.50
2022-08-14T02:40:43.050Z,4.40
2022-08-14T02:43:23.964Z,3.90
2022-08-14T02:46:03.383Z,3.72
2022-08-14T02:49:03.350Z,4.03
2022-08-14T02:51:42.049Z,3.85
2022-08-14T02:54:20.548Z,4.03
2022-08-14T02:57:16.052Z,4.45
2022-08-14T02:59:59.555Z,4.05
2022-08-14T03:02:56.468Z,4.22
2022-08-14T03:05:41.393Z,4.32
2022-08-14T03:08:21.180Z,4.68
2022-08-14T03:11:07.691Z,4.70
2022-08-14T03:13:51.809Z,4.35
2022-08-14T03:16:35.997Z,4.55
2022-08-14T03:19:19.651Z,4.65
2022-08-14T03:21:57.977Z,4.70
2022-08-14T03:24:37.699Z,4.55
2022-08-14T03:27:17.059Z,4.37
2022-08-14T03:29:55.230Z,4.60
2022-08-14T03:32:33.616Z,5.60
2022-08-14T03:35:12.207Z,4.85
2022-08-14T03:39:12.297Z,4.90
2022-08-14T03:40:51.451Z,4.68
2022-08-14T03:43:33.846Z,4.70
2022-08-14T03:46:38.833Z,4.93
2022-08-14T03:49:12.784Z,4.78
2022-08-14T03:51:52.159Z,5.20
2022-08-14T03:57:13.964Z,4.88
2022-08-14T03:59:52.376Z,4.82
2022-08-14T04:02:33.408Z,5.47
2022-08-14T04:05:16.731Z,5.00
2022-08-14T04:08:08.613Z,4.82
2022-08-14T04:10:53.487Z,5.07
2022-08-14T04:13:35.536Z,4.85
2022-08-14T04:16:20.680Z,5.20
2022-08-14T04:19:00.459Z,5.35
2022-08-14T04:22:03.752Z,4.50
2022-08-14T04:24:39.260Z,5.10
2022-08-14T04:27:17.567Z,4.78
2022-08-14T04:29:57.460Z,4.65
2022-08-14T04:33:00.412Z,4.68
2022-08-14T04:35:55.890Z,4.70
2022-08-14T04:38:50.800Z,4.88
2022-08-14T04:41:47.683Z,4.43
2022-08-14T04:44:36.587Z,4.97
2022-08-14T04:47:38.303Z,5.05
2022-08-14T04:50:31.363Z,5.28
2022-08-14T04:53:26.492Z,4.90
2022-08-14T04:56:30.205Z,5.07
2022-08-14T04:59:11.304Z,4.90
2022-08-14T05:01:53.864Z,5.22
2022-08-14T05:04:33.561Z,5.40
2022-08-14T05:07:17.950Z,5.40
2022-08-14T05:10:16.441Z,5.40
2022-08-14T05:13:13.340Z,5.45
2022-08-14T05:15:55.148Z,6.07
2022-08-14T05:19:18.755Z,6.07
2022-08-14T05:21:57.419Z,5.63
2022-08-14T05:24:34.008Z,5.57
2022-08-14T05:27:13.040Z,6.35
2022-08-14T05:29:57.025Z,5.85
2022-08-14T05:32:35.737Z,6.07
2022-08-14T05:35:15.198Z,6.00
2022-08-14T05:37:54.135Z,5.97
2022-08-14T05:40:33.038Z,6.68
2022-08-14T05:43:11.201Z,5.90
2022-08-14T05:45:50.967Z,5.72
2022-08-14T05:48:33.084Z,6.47
2022-08-14T05:51:13.045Z,6.40
2022-08-14T05:54:01.515Z,5.88
2022-08-14T05:56:49.783Z,6.50
2022-08-14T05:59:36.770Z,6.75
2022-08-14T06:02:17.571Z,6.78
2022-08-14T06:05:01.857Z,7.10
2022-08-14T06:07:41.268Z,6.93
2022-08-14T06:10:21.536Z,6.90
2022-08-14T06:13:04.054Z,6.43
2022-08-14T06:15:43.446Z,6.88
2022-08-14T06:18:21.738Z,6.75
2022-08-14T06:21:06.235Z,6.38
2022-08-14T06:23:53.182Z,7.60
2022-08-14T06:26:31.404Z,6.10
2022-08-14T06:29:10.909Z,7.32
2022-08-14T06:31:54.478Z,6.57
2022-08-14T06:35:03.240Z,6.78
2022-08-14T06:37:47.809Z,6.68
2022-08-14T06:40:35.719Z,6.70
2022-08-14T06:43:16.101Z,6.28
2022-08-14T06:45:55.447Z,6.30
2022-08-14T06:48:35.509Z,6.05
2022-08-14T06:51:14.288Z,6.40
2022-08-14T06:53:52.406Z,6.20
2022-08-14T06:56:30.773Z,6.85
2022-08-14T06:59:08.917Z,7.07
2022-08-14T07:02:17.703Z,6.30
2022-08-14T07:05:20.982Z,6.22
2022-08-14T07:08:01.380Z,6.47
2022-08-14T07:10:40.101Z,6.72
2022-08-14T07:13:22.336Z,5.97
2022-08-14T07:16:05.521Z,6.68
2022-08-14T07:18:43.910Z,6.13
2022-08-14T07:21:23.296Z,6.53
2022-08-14T07:24:01.365Z,6.75
2022-08-14T07:26:41.205Z,5.28
2022-08-14T07:29:24.054Z,6.63
2022-08-14T07:32:04.755Z,6.03
2022-08-14T07:34:42.943Z,6.28
2022-08-14T07:37:21.324Z,6.20
2022-08-14T07:39:59.520Z,5.97
2022-08-14T07:42:38.855Z,5.68
2022-08-14T07:45:19.557Z,5.90
2022-08-14T07:47:58.137Z,6.05
2022-08-14T07:50:39.531Z,5.50
2022-08-14T07:53:19.500Z,6.03
2022-08-14T07:56:08.770Z,5.68
2022-08-14T07:58:58.390Z,4.90
2022-08-14T08:01:36.816Z,5.47
2022-08-14T08:04:24.016Z,4.97
2022-08-14T08:07:03.617Z,5.55
2022-08-14T08:09:53.056Z,5.03
2022-08-14T08:12:33.720Z,5.60
2022-08-14T08:17:53.766Z,5.32
2022-08-14T08:20:53.576Z,5.22
2022-08-14T08:23:43.715Z,5.38
2022-08-14T08:26:31.360Z,5.47
2022-08-14T08:29:09.781Z,6.05
2022-08-14T08:34:30.703Z,4.80
2022-08-14T08:37:08.838Z,4.68
2022-08-14T08:40:02.789Z,7.28
2022-08-14T08:42:44.559Z,5.70
2022-08-14T08:45:23.635Z,5.70
2022-08-14T08:48:03.713Z,5.93
2022-08-14T08:51:02.282Z,5.32
2022-08-14T08:53:41.794Z,5.00
2022-08-14T08:56:30.796Z,4.70
2022-08-14T08:59:27.265Z,4.55
2022-08-14T09:02:10.823Z,4.90
2022-08-14T09:04:53.552Z,6.10
2022-08-14T09:07:32.132Z,5.05
2022-08-14T09:10:11.249Z,5.45
2022-08-14T09:12:56.390Z,5.28
2022-08-14T09:15:42.379Z,5.18
2022-08-14T09:18:23.368Z,5.55
2022-08-14T09:21:01.496Z,6.57
2022-08-14T09:24:28.119Z,7.55
2022-08-14T09:26:41.875Z,6.15
2022-08-14T09:29:23.268Z,5.40
2022-08-14T09:32:58.365Z,5.50
2022-08-14T09:35:33.630Z,4.97
2022-08-14T09:38:44.201Z,5.82
2022-08-14T09:42:20.152Z,5.40
2022-08-14T09:45:16.580Z,5.90
2022-08-14T09:47:57.978Z,5.70
2022-08-14T09:50:52.303Z,5.85
2022-08-14T09:54:18.780Z,6.13
2022-08-14T09:56:51.647Z,6.07
2022-08-14T09:59:46.599Z,6.20
2022-08-14T10:02:32.124Z,5.32
2022-08-14T10:05:13.145Z,6.78
2022-08-14T10:07:53.402Z,5.85
2022-08-14T10:10:41.668Z,8.43
2022-08-14T10:13:26.715Z,6.35
2022-08-14T10:16:05.047Z,5.63
2022-08-14T10:19:13.463Z,5.43
2022-08-14T10:23:12.882Z,4.95
2022-08-14T10:25:16.162Z,5.10
2022-08-14T10:27:59.372Z,5.03
2022-08-14T10:30:38.518Z,4.85
2022-08-14T10:33:32.712Z,5.57
2022-08-14T10:36:19.761Z,5.13
2022-08-14T10:39:22.910Z,5.28
2022-08-14T10:42:16.286Z,4.85
2022-08-14T10:44:56.609Z,4.53
2022-08-14T10:48:08.704Z,4.18
2022-08-14T10:50:46.585Z,4.57
2022-08-14T10:53:39.275Z,4.45
2022-08-14T10:56:21.562Z,4.25
2022-08-14T10:59:13.464Z,4.07
2022-08-14T11:01:51.616Z,4.07
2022-08-14T11:04:31.256Z,4.07
2022-08-14T11:07:21.074Z,4.38
2022-08-14T11:12:56.123Z,4.20
2022-08-14T11:15:36.327Z,4.55
2022-08-14T11:18:20.557Z,4.00
2022-08-14T11:21:10.473Z,3.88
2022-08-14T11:23:49.823Z,4.38
2022-08-14T11:26:34.938Z,3.65
2022-08-14T11:29:15.241Z,3.90
2022-08-14T11:32:00.194Z,4.13
2022-08-14T11:34:39.460Z,4.05
2022-08-14T11:37:21.986Z,4.07
2022-08-14T11:40:20.007Z,4.05
2022-08-14T11:43:09.991Z,4.30
2022-08-14T11:45:50.651Z,3.53
2022-08-14T11:49:02.434Z,4.28
2022-08-14T11:51:30.609Z,4.10
2022-08-14T11:54:08.937Z,4.88
2022-08-14T11:56:51.416Z,4.15
2022-08-14T11:59:33.510Z,4.00
2022-08-14T12:03:01.213Z,6.35
2022-08-14T12:05:16.490Z,4.57
2022-08-14T12:07:56.075Z,4.05
2022-08-14T12:10:40.942Z,3.92
2022-08-14T12:13:23.513Z,4.95
2022-08-14T12:16:11.280Z,4.55
2022-08-14T12:18:59.268Z,5.43
2022-08-14T12:21:37.651Z,4.45
2022-08-14T12:24:31.825Z,4.40
2022-08-14T12:27:16.862Z,6.95
2022-08-14T12:29:57.270Z,8.20
2022-08-14T12:32:49.134Z,6.95
2022-08-14T12:35:42.831Z,5.95
2022-08-14T12:38:43.585Z,7.20
2022-08-14T12:41:27.896Z,4.75
2022-08-14T12:44:08.487Z,6.18
2022-08-14T12:46:47.440Z,9.30
2022-08-14T12:49:28.447Z,5.78
2022-08-14T12:52:16.801Z,4.53
2022-08-14T12:55:21.522Z,4.15
2022-08-14T12:58:02.624Z,4.43
2022-08-14T13:01:16.717Z,4.05
2022-08-14T13:04:07.930Z,3.80
2022-08-14T13:06:50.482Z,4.15
2022-08-14T13:09:36.444Z,5.28
2022-08-14T13:12:33.186Z,4.47
2022-08-14T13:15:18.056Z,4.93
2022-08-14T13:18:00.504Z,5.00
2022-08-14T13:20:51.298Z,4.25
2022-08-14T13:23:37.633Z,8.70
2022-08-14T13:26:17.070Z,10.38
2022-08-14T13:29:01.445Z,18.90
2022-08-14T13:31:49.718Z,14.75
2022-08-14T13:34:33.218Z,12.68
2022-08-14T13:37:11.818Z,7.50
2022-08-14T13:39:56.667Z,5.60
2022-08-14T13:42:36.725Z,5.28
2022-08-14T13:45:15.701Z,4.93
2022-08-14T13:47:55.588Z,4.80
2022-08-14T13:50:35.310Z,4.43
2022-08-14T13:53:16.391Z,5.97
2022-08-14T13:55:56.532Z,4.75
2022-08-14T13:58:37.918Z,6.38
2022-08-14T14:01:18.912Z,6.35
2022-08-14T14:03:57.591Z,5.32
2022-08-14T14:06:36.787Z,4.60
2022-08-14T14:09:25.734Z,6.43
2022-08-14T14:12:04.518Z,5.18
2022-08-14T14:14:50.924Z,5.07
2022-08-14T14:17:31.702Z,5.47
2022-08-14T14:23:17.603Z,4.45
2022-08-14T14:25:57.728Z,4.50
2022-08-14T14:31:16.476Z,3.72
2022-08-14T14:34:07.549Z,4.30
2022-08-14T14:37:04.876Z,4.30
2022-08-14T14:40:50.350Z,4.07
2022-08-14T14:42:55.642Z,5.13
2022-08-14T14:45:36.076Z,4.18
2022-08-14T14:48:15.530Z,4.85
2022-08-14T14:50:53.939Z,4.78
2022-08-14T14:53:39.150Z,5.03
2022-08-14T14:56:52.123Z,4.50
2022-08-14T14:59:15.877Z,5.38
2022-08-14T15:02:08.156Z,6.03
2022-08-14T15:04:48.004Z,5.47
2022-08-14T15:10:27.880Z,4.38
2022-08-14T15:13:10.424Z,4.63
2022-08-14T15:15:48.975Z,5.43
2022-08-14T15:18:39.258Z,5.25
2022-08-14T15:21:20.256Z,4.43
2022-08-14T15:23:59.369Z,5.18
2022-08-14T15:26:37.676Z,5.05
2022-08-14T15:29:17.320Z,5.32
2022-08-14T15:31:55.500Z,5.03
2022-08-14T15:34:45.292Z,4.78
2022-08-14T15:37:32.712Z,4.50
2022-08-14T15:40:22.064Z,5.70
2022-08-14T15:43:00.985Z,4.78
2022-08-14T15:45:42.449Z,4.15
2022-08-14T15:48:22.273Z,4.18
2022-08-14T15:51:03.223Z,4.63
2022-08-14T15:53:42.799Z,5.72
2022-08-14T15:56:42.296Z,6.25
2022-08-14T15:59:21.860Z,5.07
2022-08-14T16:02:01.523Z,5.65
2022-08-14T16:04:41.321Z,4.65
2022-08-14T16:07:22.307Z,5.20
2022-08-14T16:10:28.254Z,4.15
2022-08-14T16:13:04.901Z,5.65
2022-08-14T16:15:45.459Z,7.03
2022-08-14T16:18:36.716Z,7.38
2022-08-14T16:21:21.571Z,6.20
2022-08-14T16:24:01.620Z,5.70
2022-08-14T16:26:41.044Z,5.05
2022-08-14T16:29:21.745Z,5.25
2022-08-14T16:32:31.941Z,9.57
2022-08-14T16:35:01.380Z,5.50
2022-08-14T16:37:43.437Z,5.20
2022-08-14T16:43:13.007Z,4.95
2022-08-14T16:45:53.985Z,5.53
2022-08-14T16:48:57.368Z,6.10
2022-08-14T16:51:34.775Z,7.38
2022-08-14T16:54:33.802Z,8.43
2022-08-14T16:57:28.010Z,6.68
2022-08-14T17:00:43.642Z,5.28
2022-08-14T17:03:24.648Z,8.02
2022-08-14T17:06:03.152Z,5.47
2022-08-14T17:09:01.892Z,5.28
2022-08-14T17:12:33.442Z,5.63
2022-08-14T17:15:15.431Z,5.22
2022-08-14T17:17:57.495Z,5.15
2022-08-14T17:20:54.173Z,5.05
2022-08-14T17:23:35.875Z,5.03
2022-08-14T17:26:47.373Z,4.83
2022-08-14T17:29:33.261Z,4.93
2022-08-14T17:32:21.967Z,5.85
2022-08-14T17:35:10.064Z,6.53
2022-08-14T17:37:56.044Z,9.15
2022-08-14T17:40:34.734Z,5.93
2022-08-14T17:43:13.411Z,7.47
2022-08-14T17:45:51.656Z,6.90
2022-08-14T17:49:15.156Z,5.28
2022-08-14T17:51:33.021Z,6.73
2022-08-14T17:54:12.794Z,5.80
2022-08-14T17:57:23.493Z,4.93
2022-08-14T18:00:02.029Z,5.63
2022-08-14T18:02:51.303Z,5.20
2022-08-14T18:08:32.845Z,4.47
2022-08-14T18:11:17.927Z,4.05
2022-08-14T18:13:59.841Z,4.80
2022-08-14T18:16:44.742Z,4.38
2022-08-14T18:19:29.370Z,4.65
2022-08-14T18:22:31.193Z,4.60
2022-08-14T18:25:18.333Z,4.22
2022-08-14T18:28:16.180Z,4.45
2022-08-14T18:31:21.423Z,4.07
2022-08-14T18:34:31.714Z,4.00
2022-08-14T18:37:21.315Z,4.22
2022-08-14T18:40:20.212Z,4.05
2022-08-14T18:43:03.501Z,4.10
2022-08-14T18:46:01.288Z,4.53
2022-08-14T18:48:51.082Z,4.32
2022-08-14T18:51:45.208Z,4.57
2022-08-14T18:54:34.322Z,4.97
2022-08-14T18:57:13.303Z,5.25
2022-08-14T18:59:59.051Z,4.60
2022-08-14T19:02:43.468Z,5.03
2022-08-14T19:05:47.582Z,4.70
2022-08-14T19:08:27.556Z,4.05
2022-08-14T19:11:40.595Z,4.43
2022-08-14T19:14:47.540Z,3.70
2022-08-14T19:18:14.137Z,3.83
2022-08-14T19:20:53.000Z,4.00
2022-08-14T19:23:43.910Z,3.92
2022-08-14T19:26:52.198Z,4.15
2022-08-14T19:29:37.552Z,4.45
2022-08-14T19:32:41.069Z,4.05
2022-08-14T19:35:49.048Z,4.40
2022-08-14T19:38:53.568Z,3.78
2022-08-14T19:41:37.978Z,3.70
2022-08-14T19:44:20.175Z,3.72
2022-08-14T19:47:11.498Z,4.00
2022-08-14T19:50:07.739Z,4.15
2022-08-14T19:56:02.369Z,3.70
2022-08-14T19:58:55.191Z,4.15
2022-08-14T20:01:40.268Z,4.15
2022-08-14T20:04:47.721Z,3.85
2022-08-14T20:08:00.482Z,4.07
2022-08-14T20:11:04.940Z,3.83
2022-08-14T20:13:38.796Z,4.05
2022-08-14T20:16:20.919Z,3.92
2022-08-14T20:19:28.892Z,4.50
2022-08-14T20:22:35.403Z,4.50
2022-08-14T20:25:16.666Z,4.47
2022-08-14T20:27:58.584Z,4.28
2022-08-14T20:30:38.102Z,4.03
2022-08-14T20:33:18.404Z,4.15
2022-08-14T20:35:56.638Z,3.55
2022-08-14T20:38:39.396Z,4.40
2022-08-14T20:41:28.742Z,3.60
2022-08-14T20:44:28.753Z,4.75
2022-08-14T20:47:08.109Z,4.03
2022-08-14T20:49:46.345Z,4.10
2022-08-14T20:52:30.255Z,3.97
2022-08-14T20:55:41.721Z,4.07
2022-08-14T20:58:44.093Z,3.90
2022-08-14T21:01:23.322Z,4.03
2022-08-14T21:04:04.927Z,3.30
2022-08-14T21:07:23.968Z,3.35
2022-08-14T21:10:06.246Z,4.07
2022-08-14T21:14:18.708Z,3.80
2022-08-14T21:16:34.198Z,3.80
2022-08-14T21:19:06.118Z,3.83
2022-08-14T21:21:54.798Z,3.47
2022-08-14T21:24:39.597Z,4.60
2022-08-14T21:27:25.139Z,3.95
2022-08-14T21:30:08.921Z,3.85
2022-08-14T21:32:58.053Z,3.92
2022-08-14T21:35:45.671Z,4.03
2022-08-14T21:38:33.605Z,3.80
2022-08-14T21:41:43.497Z,3.17
2022-08-14T21:44:24.230Z,3.67
2022-08-14T21:47:23.523Z,3.97
2022-08-14T21:53:05.267Z,3.80
2022-08-14T21:55:44.539Z,4.00
2022-08-14T21:58:54.351Z,3.55
2022-08-14T22:01:23.911Z,3.55
2022-08-14T22:04:32.554Z,3.88
2022-08-14T22:07:00.405Z,3.67
2022-08-14T22:09:38.878Z,4.15
2022-08-14T22:12:45.459Z,4.00
2022-08-14T22:15:19.827Z,3.92
2022-08-14T22:18:02.304Z,3.65
2022-08-14T22:23:20.475Z,3.38
2022-08-14T22:25:59.337Z,3.92
2022-08-14T22:28:44.695Z,3.95
2022-08-14T22:31:24.209Z,4.00
2022-08-14T22:34:04.558Z,3.38
2022-08-14T22:40:17.536Z,3.58
2022-08-14T22:42:36.025Z,4.10
2022-08-14T22:45:15.283Z,4.22
2022-08-14T22:47:54.683Z,3.63
2022-08-14T22:50:34.487Z,4.13
2022-08-14T22:53:13.078Z,3.35
2022-08-14T22:55:52.419Z,3.63
2022-08-14T22:58:34.790Z,3.73
2022-08-14T23:01:22.839Z,4.00
2022-08-14T23:04:01.480Z,4.03
2022-08-14T23:07:03.554Z,3.78
2022-08-14T23:09:41.167Z,3.85
2022-08-14T23:12:45.905Z,3.50
2022-08-14T23:15:29.789Z,3.53
2022-08-14T23:18:13.116Z,3.80
2022-08-14T23:20:52.817Z,3.83
2022-08-14T23:23:31.589Z,3.97
2022-08-14T23:26:48.051Z,4.35
2022-08-14T23:29:08.752Z,3.92
2022-08-14T23:31:50.281Z,4.22
2022-08-14T23:34:29.630Z,3.85
2022-08-14T23:37:07.847Z,3.97
2022-08-14T23:39:46.052Z,3.50
2022-08-14T23:42:50.346Z,3.90
2022-08-14T23:45:36.038Z,3.65
2022-08-14T23:48:21.252Z,3.97
2022-08-14T23:51:03.077Z,4.15
2022-08-14T23:53:48.181Z,4.00
2022-08-14T23:56:33.479Z,4.32
2022-08-14T23:59:13.096Z,4.05
